sensor_id;sensor_type;location;lat;lon;timestamp;pressure;altitude;pressure_sealevel;temperature;humidity
33506;BME280;19843;51.040;13.782;2022-12-05T00:01:39;100230.16;;;8.26;80.94
33506;BME280;19843;51.040;13.782;2022-12-05T00:04:10;100230.09;;;8.28;80.85
33506;BME280;19843;51.040;13.782;2022-12-05T00:06:39;100230.09;;;8.28;81.12
33506;BME280;19843;51.040;13.782;2022-12-05T00:09:08;100240.41;;;8.34;80.83
33506;BME280;19843;51.040;13.782;2022-12-05T00:11:38;100234.22;;;8.33;80.17
33506;BME280;19843;51.040;13.782;2022-12-05T00:14:08;100236.91;;;8.33;80.63
33506;BME280;19843;51.040;13.782;2022-12-05T00:16:37;100237.75;;;8.34;80.33
33506;BME280;19843;51.040;13.782;2022-12-05T00:19:06;100241.28;;;8.34;80.30
33506;BME280;19843;51.040;13.782;2022-12-05T00:21:35;100239.66;;;8.32;80.50
33506;BME280;19843;51.040;13.782;2022-12-05T00:24:04;100248.50;;;8.32;80.56
33506;BME280;19843;51.040;13.782;2022-12-05T00:26:33;100247.56;;;8.33;80.58
33506;BME280;19843;51.040;13.782;2022-12-05T00:29:00;100246.88;;;8.30;80.91
33506;BME280;19843;51.040;13.782;2022-12-05T00:31:29;100246.31;;;8.25;80.86
33506;BME280;19843;51.040;13.782;2022-12-05T00:33:59;100250.69;;;8.26;80.88
33506;BME280;19843;51.040;13.782;2022-12-05T00:36:29;100254.59;;;8.20;81.35
33506;BME280;19843;51.040;13.782;2022-12-05T00:38:58;100250.41;;;8.30;81.09
33506;BME280;19843;51.040;13.782;2022-12-05T00:41:27;100242.47;;;8.29;80.68
33506;BME280;19843;51.040;13.782;2022-12-05T00:43:57;100258.84;;;8.39;80.26
33506;BME280;19843;51.040;13.782;2022-12-05T00:46:26;100261.09;;;8.30;80.73
33506;BME280;19843;51.040;13.782;2022-12-05T00:48:57;100256.59;;;8.31;80.82
33506;BME280;19843;51.040;13.782;2022-12-05T00:51:27;100252.66;;;8.38;80.59
33506;BME280;19843;51.040;13.782;2022-12-05T00:53:57;100259.69;;;8.39;80.52
33506;BME280;19843;51.040;13.782;2022-12-05T00:56:26;100255.16;;;8.41;80.42
33506;BME280;19843;51.040;13.782;2022-12-05T00:58:55;100253.56;;;8.37;80.53
33506;BME280;19843;51.040;13.782;2022-12-05T01:01:25;100253.56;;;8.37;80.57
33506;BME280;19843;51.040;13.782;2022-12-05T01:03:56;100249.09;;;8.37;80.71
33506;BME280;19843;51.040;13.782;2022-12-05T01:06:25;100249.06;;;8.23;81.43
33506;BME280;19843;51.040;13.782;2022-12-05T01:08:53;100260.78;;;8.21;81.63
33506;BME280;19843;51.040;13.782;2022-12-05T01:11:22;100260.09;;;8.17;81.44
33506;BME280;19843;51.040;13.782;2022-12-05T01:13:51;100259.06;;;8.20;81.87
33506;BME280;19843;51.040;13.782;2022-12-05T01:16:21;100249.75;;;8.27;81.72
33506;BME280;19843;51.040;13.782;2022-12-05T01:18:48;100260.59;;;8.24;81.83
33506;BME280;19843;51.040;13.782;2022-12-05T01:21:18;100265.94;;;8.24;81.88
33506;BME280;19843;51.040;13.782;2022-12-05T01:23:46;100258.69;;;8.26;81.41
33506;BME280;19843;51.040;13.782;2022-12-05T01:26:15;100256.81;;;8.28;81.81
33506;BME280;19843;51.040;13.782;2022-12-05T01:28:44;100262.34;;;8.25;82.04
33506;BME280;19843;51.040;13.782;2022-12-05T01:31:13;100249.75;;;8.27;81.68
33506;BME280;19843;51.040;13.782;2022-12-05T01:33:43;100258.69;;;8.26;81.38
33506;BME280;19843;51.040;13.782;2022-12-05T01:36:11;100257.00;;;8.25;82.02
33506;BME280;19843;51.040;13.782;2022-12-05T01:38:40;100257.00;;;8.25;82.02
33506;BME280;19843;51.040;13.782;2022-12-05T01:41:12;100264.50;;;8.18;82.22
33506;BME280;19843;51.040;13.782;2022-12-05T01:43:59;100263.56;;;8.19;82.29
33506;BME280;19843;51.040;13.782;2022-12-05T01:46:29;100265.19;;;8.22;82.45
33506;BME280;19843;51.040;13.782;2022-12-05T01:49:01;100269.09;;;8.16;82.47
33506;BME280;19843;51.040;13.782;2022-12-05T01:51:31;100266.78;;;8.24;82.34
33506;BME280;19843;51.040;13.782;2022-12-05T01:54:02;100269.59;;;8.23;81.79
33506;BME280;19843;51.040;13.782;2022-12-05T01:56:31;100275.97;;;8.20;82.48
33506;BME280;19843;51.040;13.782;2022-12-05T01:59:00;100263.56;;;8.19;82.67
33506;BME280;19843;51.040;13.782;2022-12-05T02:01:28;100274.72;;;8.26;82.61
33506;BME280;19843;51.040;13.782;2022-12-05T02:03:57;100261.28;;;8.27;82.45
33506;BME280;19843;51.040;13.782;2022-12-05T02:06:25;100250.50;;;8.29;82.00
33506;BME280;19843;51.040;13.782;2022-12-05T02:08:54;100256.81;;;8.28;82.32
33506;BME280;19843;51.040;13.782;2022-12-05T02:11:25;100255.75;;;8.30;82.14
33506;BME280;19843;51.040;13.782;2022-12-05T02:14:05;100264.81;;;8.28;82.31
33506;BME280;19843;51.040;13.782;2022-12-05T02:16:46;100267.84;;;8.22;82.44
33506;BME280;19843;51.040;13.782;2022-12-05T02:19:36;100273.59;;;8.30;82.58
33506;BME280;19843;51.040;13.782;2022-12-05T02:22:26;100271.13;;;8.27;82.83
33506;BME280;19843;51.040;13.782;2022-12-05T02:25:12;100268.88;;;8.19;83.24
33506;BME280;19843;51.040;13.782;2022-12-05T02:28:04;100269.28;;;8.13;83.41
33506;BME280;19843;51.040;13.782;2022-12-05T02:30:39;100268.38;;;8.12;83.67
33506;BME280;19843;51.040;13.782;2022-12-05T02:33:15;100276.41;;;8.12;83.47
33506;BME280;19843;51.040;13.782;2022-12-05T02:35:53;100268.59;;;8.09;83.88
33506;BME280;19843;51.040;13.782;2022-12-05T02:38:26;100273.91;;;8.09;83.47
33506;BME280;19843;51.040;13.782;2022-12-05T02:41:02;100265.13;;;8.07;83.74
33506;BME280;19843;51.040;13.782;2022-12-05T02:43:36;100278.03;;;8.15;84.03
33506;BME280;19843;51.040;13.782;2022-12-05T02:46:10;100263.25;;;8.09;83.80
33506;BME280;19843;51.040;13.782;2022-12-05T02:48:40;100261.34;;;8.11;83.73
33506;BME280;19843;51.040;13.782;2022-12-05T02:51:12;100265.91;;;8.09;83.95
33506;BME280;19843;51.040;13.782;2022-12-05T02:53:42;100261.16;;;8.14;84.29
33506;BME280;19843;51.040;13.782;2022-12-05T02:56:10;100263.16;;;8.11;84.07
33506;BME280;19843;51.040;13.782;2022-12-05T02:58:43;100256.44;;;8.04;84.63
33506;BME280;19843;51.040;13.782;2022-12-05T03:01:13;100259.38;;;7.99;84.93
33506;BME280;19843;51.040;13.782;2022-12-05T03:03:41;100255.16;;;8.11;84.50
33506;BME280;19843;51.040;13.782;2022-12-05T03:06:12;100254.69;;;8.19;83.97
33506;BME280;19843;51.040;13.782;2022-12-05T03:08:43;100258.84;;;8.08;84.72
33506;BME280;19843;51.040;13.782;2022-12-05T03:11:12;100254.81;;;8.01;84.88
33506;BME280;19843;51.040;13.782;2022-12-05T03:13:47;100250.09;;;8.06;84.86
33506;BME280;19843;51.040;13.782;2022-12-05T03:16:20;100258.25;;;8.03;85.08
33506;BME280;19843;51.040;13.782;2022-12-05T03:18:54;100258.94;;;8.07;85.16
33506;BME280;19843;51.040;13.782;2022-12-05T03:21:29;100251.78;;;8.07;84.99
33506;BME280;19843;51.040;13.782;2022-12-05T03:24:02;100251.00;;;8.05;85.01
33506;BME280;19843;51.040;13.782;2022-12-05T03:26:38;100257.03;;;8.09;84.79
33506;BME280;19843;51.040;13.782;2022-12-05T03:29:18;100261.50;;;8.08;85.01
33506;BME280;19843;51.040;13.782;2022-12-05T03:31:54;100261.16;;;8.14;84.41
33506;BME280;19843;51.040;13.782;2022-12-05T03:34:34;100258.47;;;8.14;84.41
33506;BME280;19843;51.040;13.782;2022-12-05T03:37:07;100265.34;;;8.04;84.98
33506;BME280;19843;51.040;13.782;2022-12-05T03:39:38;100270.47;;;8.07;84.88
33506;BME280;19843;51.040;13.782;2022-12-05T03:42:11;100272.09;;;8.10;84.78
33506;BME280;19843;51.040;13.782;2022-12-05T03:44:43;100272.19;;;8.08;84.72
33506;BME280;19843;51.040;13.782;2022-12-05T03:47:17;100285.97;;;8.16;84.04
33506;BME280;19843;51.040;13.782;2022-12-05T03:49:49;100269.00;;;8.18;83.32
33506;BME280;19843;51.040;13.782;2022-12-05T03:52:20;100272.78;;;8.13;83.64
33506;BME280;19843;51.040;13.782;2022-12-05T03:54:54;100273.22;;;8.06;84.40
33506;BME280;19843;51.040;13.782;2022-12-05T03:57:26;100275.25;;;8.02;84.62
33506;BME280;19843;51.040;13.782;2022-12-05T03:59:58;100270.72;;;8.19;83.61
33506;BME280;19843;51.040;13.782;2022-12-05T04:02:30;100275.47;;;8.13;83.92
33506;BME280;19843;51.040;13.782;2022-12-05T04:05:03;100273.72;;;8.12;83.60
33506;BME280;19843;51.040;13.782;2022-12-05T04:07:34;100274.78;;;8.10;83.39
33506;BME280;19843;51.040;13.782;2022-12-05T04:10:09;100275.19;;;8.18;83.10
33506;BME280;19843;51.040;13.782;2022-12-05T04:12:40;100279.19;;;8.11;83.53
33506;BME280;19843;51.040;13.782;2022-12-05T04:15:25;100273.91;;;8.09;83.23
33506;BME280;19843;51.040;13.782;2022-12-05T04:18:18;100282.25;;;8.19;83.33
33506;BME280;19843;51.040;13.782;2022-12-05T04:20:46;100277.88;;;8.18;83.03
33506;BME280;19843;51.040;13.782;2022-12-05T04:23:41;100283.47;;;8.13;82.99
33506;BME280;19843;51.040;13.782;2022-12-05T04:26:20;100288.56;;;8.18;82.92
33506;BME280;19843;51.040;13.782;2022-12-05T04:28:53;100284.91;;;8.19;82.92
33506;BME280;19843;51.040;13.782;2022-12-05T04:31:26;100289.06;;;8.25;82.70
33506;BME280;19843;51.040;13.782;2022-12-05T04:34:00;100281.13;;;8.23;82.46
33506;BME280;19843;51.040;13.782;2022-12-05T04:36:32;100287.00;;;8.14;82.67
33506;BME280;19843;51.040;13.782;2022-12-05T04:39:04;100285.03;;;8.18;82.99
33506;BME280;19843;51.040;13.782;2022-12-05T04:41:48;100284.63;;;8.24;82.59
33506;BME280;19843;51.040;13.782;2022-12-05T04:44:19;100283.06;;;8.05;83.37
33506;BME280;19843;51.040;13.782;2022-12-05T04:46:51;100284.84;;;8.21;82.98
33506;BME280;19843;51.040;13.782;2022-12-05T04:49:23;100287.47;;;8.06;83.57
33506;BME280;19843;51.040;13.782;2022-12-05T04:51:54;100278.41;;;8.09;83.26
33506;BME280;19843;51.040;13.782;2022-12-05T04:54:27;100284.97;;;8.03;83.32
33506;BME280;19843;51.040;13.782;2022-12-05T04:57:01;100289.72;;;7.98;83.72
33506;BME280;19843;51.040;13.782;2022-12-05T04:59:31;100292.19;;;8.01;83.23
33506;BME280;19843;51.040;13.782;2022-12-05T05:02:03;100301.56;;;8.08;83.22
33506;BME280;19843;51.040;13.782;2022-12-05T05:04:35;100298.81;;;8.10;83.16
33506;BME280;19843;51.040;13.782;2022-12-05T05:07:06;100308.06;;;8.04;83.30
33506;BME280;19843;51.040;13.782;2022-12-05T05:09:34;100311.78;;;8.02;84.11
33506;BME280;19843;51.040;13.782;2022-12-05T05:12:03;100301.09;;;8.02;84.08
33506;BME280;19843;51.040;13.782;2022-12-05T05:14:31;100307.28;;;8.02;83.76
33506;BME280;19843;51.040;13.782;2022-12-05T05:16:58;100308.59;;;7.95;83.90
33506;BME280;19843;51.040;13.782;2022-12-05T05:19:26;100307.81;;;7.93;84.24
33506;BME280;19843;51.040;13.782;2022-12-05T05:21:55;100315.13;;;7.89;84.32
33506;BME280;19843;51.040;13.782;2022-12-05T05:24:22;100310.22;;;7.98;84.45
33506;BME280;19843;51.040;13.782;2022-12-05T05:26:51;100313.31;;;7.90;85.00
33506;BME280;19843;51.040;13.782;2022-12-05T05:29:23;100302.63;;;7.90;84.81
33506;BME280;19843;51.040;13.782;2022-12-05T05:31:50;100297.97;;;8.09;83.73
33506;BME280;19843;51.040;13.782;2022-12-05T05:34:18;100303.50;;;8.06;84.02
33506;BME280;19843;51.040;13.782;2022-12-05T05:36:50;100314.53;;;8.00;84.26
33506;BME280;19843;51.040;13.782;2022-12-05T05:39:19;100314.69;;;7.97;84.37
33506;BME280;19843;51.040;13.782;2022-12-05T05:41:48;100316.84;;;8.06;84.18
33506;BME280;19843;51.040;13.782;2022-12-05T05:44:15;100319.59;;;8.05;83.51
33506;BME280;19843;51.040;13.782;2022-12-05T05:46:43;100321.41;;;8.04;83.61
33506;BME280;19843;51.040;13.782;2022-12-05T05:49:10;100319.25;;;8.11;83.69
33506;BME280;19843;51.040;13.782;2022-12-05T05:51:38;100324.59;;;8.11;83.24
33506;BME280;19843;51.040;13.782;2022-12-05T05:54:05;100324.06;;;8.04;84.64
33506;BME280;19843;51.040;13.782;2022-12-05T05:56:34;100335.19;;;7.97;84.68
33506;BME280;19843;51.040;13.782;2022-12-05T05:59:02;100329.75;;;7.98;84.55
33506;BME280;19843;51.040;13.782;2022-12-05T06:01:30;100337.25;;;8.07;83.78
33506;BME280;19843;51.040;13.782;2022-12-05T06:03:58;100332.69;;;8.09;83.71
33506;BME280;19843;51.040;13.782;2022-12-05T06:06:26;100332.41;;;8.14;83.33
33506;BME280;19843;51.040;13.782;2022-12-05T06:08:53;100327.84;;;8.16;83.34
33506;BME280;19843;51.040;13.782;2022-12-05T06:11:22;100332.69;;;8.09;83.59
33506;BME280;19843;51.040;13.782;2022-12-05T06:13:54;100335.78;;;8.18;82.96
33506;BME280;19843;51.040;13.782;2022-12-05T06:16:22;100334.81;;;8.19;83.06
33506;BME280;19843;51.040;13.782;2022-12-05T06:18:51;100334.03;;;8.16;82.35
33506;BME280;19843;51.040;13.782;2022-12-05T06:21:19;100329.19;;;8.23;82.27
33506;BME280;19843;51.040;13.782;2022-12-05T06:23:47;100340.22;;;8.17;82.35
33506;BME280;19843;51.040;13.782;2022-12-05T06:26:16;100348.00;;;8.06;82.62
33506;BME280;19843;51.040;13.782;2022-12-05T06:28:45;100356.53;;;8.12;82.74
33506;BME280;19843;51.040;13.782;2022-12-05T06:31:16;100353.44;;;8.04;82.89
33506;BME280;19843;51.040;13.782;2022-12-05T06:33:44;100359.38;;;8.09;82.95
33506;BME280;19843;51.040;13.782;2022-12-05T06:36:14;100376.97;;;8.13;82.83
33506;BME280;19843;51.040;13.782;2022-12-05T06:38:42;100371.53;;;7.99;83.19
33506;BME280;19843;51.040;13.782;2022-12-05T06:41:13;100377.34;;;8.22;82.14
33506;BME280;19843;51.040;13.782;2022-12-05T06:43:41;100374.28;;;8.13;82.48
33506;BME280;19843;51.040;13.782;2022-12-05T06:46:10;100383.16;;;8.14;82.42
33506;BME280;19843;51.040;13.782;2022-12-05T06:48:39;100384.28;;;8.10;82.53
33506;BME280;19843;51.040;13.782;2022-12-05T06:51:08;100394.63;;;8.16;82.36
33506;BME280;19843;51.040;13.782;2022-12-05T06:53:36;100396.31;;;8.17;82.07
33506;BME280;19843;51.040;13.782;2022-12-05T06:56:05;100395.81;;;8.10;82.81
33506;BME280;19843;51.040;13.782;2022-12-05T06:58:33;100398.41;;;7.96;83.17
33506;BME280;19843;51.040;13.782;2022-12-05T07:01:01;100397.38;;;7.99;83.28
33506;BME280;19843;51.040;13.782;2022-12-05T07:03:48;100404.78;;;8.09;82.63
33506;BME280;19843;51.040;13.782;2022-12-05T07:06:16;100400.75;;;8.02;82.75
33506;BME280;19843;51.040;13.782;2022-12-05T07:08:43;100402.81;;;8.13;82.35
33506;BME280;19843;51.040;13.782;2022-12-05T07:11:11;100396.94;;;8.06;82.76
33506;BME280;19843;51.040;13.782;2022-12-05T07:13:39;100397.88;;;8.21;82.19
33506;BME280;19843;51.040;13.782;2022-12-05T07:16:06;100398.56;;;8.25;81.75
33506;BME280;19843;51.040;13.782;2022-12-05T07:18:34;100398.56;;;8.25;81.90
33506;BME280;19843;51.040;13.782;2022-12-05T07:21:05;100400.34;;;8.24;81.85
33506;BME280;19843;51.040;13.782;2022-12-05T07:23:39;100395.66;;;8.13;82.01
33506;BME280;19843;51.040;13.782;2022-12-05T07:26:08;100398.59;;;8.09;82.44
33506;BME280;19843;51.040;13.782;2022-12-05T07:28:36;100392.97;;;8.13;82.46
33506;BME280;19843;51.040;13.782;2022-12-05T07:31:05;100394.53;;;8.18;82.15
33506;BME280;19843;51.040;13.782;2022-12-05T07:33:33;100399.88;;;8.18;82.29
33506;BME280;19843;51.040;13.782;2022-12-05T07:36:01;100398.31;;;8.13;82.36
33506;BME280;19843;51.040;13.782;2022-12-05T07:38:31;100400.38;;;8.08;82.78
33506;BME280;19843;51.040;13.782;2022-12-05T07:41:03;100405.38;;;8.14;82.59
33506;BME280;19843;51.040;13.782;2022-12-05T07:43:38;100422.34;;;8.13;82.74
33506;BME280;19843;51.040;13.782;2022-12-05T07:46:06;100414.59;;;8.25;82.21
33506;BME280;19843;51.040;13.782;2022-12-05T07:48:34;100415.13;;;8.15;82.48
33506;BME280;19843;51.040;13.782;2022-12-05T07:51:05;100420.38;;;8.01;83.28
33506;BME280;19843;51.040;13.782;2022-12-05T07:53:35;100413.72;;;7.92;83.71
33506;BME280;19843;51.040;13.782;2022-12-05T07:56:04;100419.31;;;8.04;83.14
33506;BME280;19843;51.040;13.782;2022-12-05T07:58:33;100422.25;;;8.15;82.49
33506;BME280;19843;51.040;13.782;2022-12-05T08:01:05;100423.91;;;8.18;82.54
33506;BME280;19843;51.040;13.782;2022-12-05T08:03:33;100429.41;;;8.14;82.91
33506;BME280;19843;51.040;13.782;2022-12-05T08:06:01;100426.31;;;8.22;82.81
33506;BME280;19843;51.040;13.782;2022-12-05T08:08:29;100433.13;;;8.28;82.63
33506;BME280;19843;51.040;13.782;2022-12-05T08:11:03;100440.03;;;8.48;81.52
33506;BME280;19843;51.040;13.782;2022-12-05T08:13:31;100439.31;;;8.44;81.62
33506;BME280;19843;51.040;13.782;2022-12-05T08:16:00;100436.66;;;8.44;81.27
33506;BME280;19843;51.040;13.782;2022-12-05T08:18:28;100438.78;;;8.37;81.42
33506;BME280;19843;51.040;13.782;2022-12-05T08:21:00;100434.66;;;8.32;81.86
33506;BME280;19843;51.040;13.782;2022-12-05T08:23:29;100433.53;;;8.36;81.49
33506;BME280;19843;51.040;13.782;2022-12-05T08:26:00;100435.19;;;8.39;82.11
33506;BME280;19843;51.040;13.782;2022-12-05T08:28:29;100436.84;;;8.41;81.74
33506;BME280;19843;51.040;13.782;2022-12-05T08:31:02;100447.75;;;8.36;82.23
33506;BME280;19843;51.040;13.782;2022-12-05T08:33:30;100437.06;;;8.36;81.99
33506;BME280;19843;51.040;13.782;2022-12-05T08:35:59;100451.47;;;8.34;82.23
33506;BME280;19843;51.040;13.782;2022-12-05T08:38:27;100454.44;;;8.45;82.18
33506;BME280;19843;51.040;13.782;2022-12-05T08:40:54;100452.34;;;8.50;81.78
33506;BME280;19843;51.040;13.782;2022-12-05T08:43:22;100450.78;;;8.46;82.15
33506;BME280;19843;51.040;13.782;2022-12-05T08:45:51;100450.19;;;8.57;81.43
33506;BME280;19843;51.040;13.782;2022-12-05T08:48:19;100448.16;;;8.61;81.09
33506;BME280;19843;51.040;13.782;2022-12-05T08:50:54;100449.41;;;8.55;81.58
33506;BME280;19843;51.040;13.782;2022-12-05T08:53:22;100447.75;;;8.68;80.67
33506;BME280;19843;51.040;13.782;2022-12-05T08:55:49;100448.09;;;8.62;81.10
33506;BME280;19843;51.040;13.782;2022-12-05T08:58:17;100455.19;;;8.63;80.89
33506;BME280;19843;51.040;13.782;2022-12-05T09:00:44;100449.72;;;8.65;81.44
33506;BME280;19843;51.040;13.782;2022-12-05T09:03:13;100455.00;;;8.66;80.59
33506;BME280;19843;51.040;13.782;2022-12-05T09:05:41;100460.25;;;8.68;80.83
33506;BME280;19843;51.040;13.782;2022-12-05T09:08:08;100460.69;;;8.60;81.19
33506;BME280;19843;51.040;13.782;2022-12-05T09:10:36;100468.34;;;8.66;81.15
33506;BME280;19843;51.040;13.782;2022-12-05T09:13:03;100473.19;;;8.60;81.22
33506;BME280;19843;51.040;13.782;2022-12-05T09:15:31;100467.25;;;8.54;81.44
33506;BME280;19843;51.040;13.782;2022-12-05T09:17:58;100471.72;;;8.70;81.20
33506;BME280;19843;51.040;13.782;2022-12-05T09:20:28;100482.31;;;8.71;81.19
33506;BME280;19843;51.040;13.782;2022-12-05T09:22:55;100480.31;;;8.75;80.97
33506;BME280;19843;51.040;13.782;2022-12-05T09:25:23;100484.66;;;8.62;81.24
33506;BME280;19843;51.040;13.782;2022-12-05T09:27:50;100492.94;;;8.57;81.68
33506;BME280;19843;51.040;13.782;2022-12-05T09:30:20;100494.66;;;8.58;81.76
33506;BME280;19843;51.040;13.782;2022-12-05T09:32:47;100497.25;;;8.60;81.26
33506;BME280;19843;51.040;13.782;2022-12-05T09:35:15;100494.22;;;8.66;81.43
33506;BME280;19843;51.040;13.782;2022-12-05T09:37:43;100494.38;;;8.63;81.15
33506;BME280;19843;51.040;13.782;2022-12-05T09:40:14;100498.88;;;8.62;81.16
33506;BME280;19843;51.040;13.782;2022-12-05T09:42:53;100493.38;;;8.65;80.99
33506;BME280;19843;51.040;13.782;2022-12-05T09:45:24;100489.16;;;8.61;81.14
33506;BME280;19843;51.040;13.782;2022-12-05T09:47:58;100496.41;;;8.59;80.95
33506;BME280;19843;51.040;13.782;2022-12-05T09:50:28;100490.50;;;8.68;80.66
33506;BME280;19843;51.040;13.782;2022-12-05T09:53:09;100493.25;;;8.67;80.81
33506;BME280;19843;51.040;13.782;2022-12-05T09:55:44;100494.22;;;8.66;80.76
33506;BME280;19843;51.040;13.782;2022-12-05T09:58:19;100493.44;;;8.64;80.83
33506;BME280;19843;51.040;13.782;2022-12-05T10:00:48;100493.78;;;8.73;80.15
33506;BME280;19843;51.040;13.782;2022-12-05T10:03:23;100501.22;;;8.68;80.47
33506;BME280;19843;51.040;13.782;2022-12-05T10:06:00;100500.16;;;8.71;80.37
33506;BME280;19843;51.040;13.782;2022-12-05T10:08:37;100500.09;;;8.72;80.43
33506;BME280;19843;51.040;13.782;2022-12-05T10:11:13;100501.72;;;8.75;80.60
33506;BME280;19843;51.040;13.782;2022-12-05T10:13:47;100500.47;;;8.81;80.15
33506;BME280;19843;51.040;13.782;2022-12-05T10:16:24;100508.16;;;8.87;79.83
33506;BME280;19843;51.040;13.782;2022-12-05T10:18:58;100504.63;;;8.86;79.73
33506;BME280;19843;51.040;13.782;2022-12-05T10:21:31;100507.47;;;8.83;79.71
33506;BME280;19843;51.040;13.782;2022-12-05T10:24:03;100508.84;;;8.90;79.57
33506;BME280;19843;51.040;13.782;2022-12-05T10:26:34;100506.44;;;8.86;80.28
33506;BME280;19843;51.040;13.782;2022-12-05T10:29:13;100508.31;;;8.99;79.51
33506;BME280;19843;51.040;13.782;2022-12-05T10:31:46;100501.00;;;8.87;79.33
33506;BME280;19843;51.040;13.782;2022-12-05T10:34:27;100497.16;;;8.77;79.89
33506;BME280;19843;51.040;13.782;2022-12-05T10:36:57;100491.59;;;8.80;79.82
33506;BME280;19843;51.040;13.782;2022-12-05T10:39:29;100497.56;;;8.69;80.31
33506;BME280;19843;51.040;13.782;2022-12-05T10:41:57;100500.34;;;8.68;80.61
33506;BME280;19843;51.040;13.782;2022-12-05T10:44:25;100491.38;;;8.69;80.12
33506;BME280;19843;51.040;13.782;2022-12-05T10:46:53;100486.44;;;8.77;79.58
33506;BME280;19843;51.040;13.782;2022-12-05T10:49:21;100487.59;;;8.57;79.25
33506;BME280;19843;51.040;13.782;2022-12-05T10:51:50;100488.19;;;8.46;79.25
33506;BME280;19843;51.040;13.782;2022-12-05T10:54:20;100493.72;;;8.43;79.65
33506;BME280;19843;51.040;13.782;2022-12-05T10:56:52;100493.13;;;8.54;78.94
33506;BME280;19843;51.040;13.782;2022-12-05T10:59:21;100501.41;;;8.49;78.86
33506;BME280;19843;51.040;13.782;2022-12-05T11:01:51;100502.94;;;8.53;78.96
33506;BME280;19843;51.040;13.782;2022-12-05T11:04:25;100503.19;;;8.49;79.25
33506;BME280;19843;51.040;13.782;2022-12-05T11:06:56;100503.47;;;8.44;79.27
33506;BME280;19843;51.040;13.782;2022-12-05T11:09:26;100497.97;;;8.47;78.84
33506;BME280;19843;51.040;13.782;2022-12-05T11:12:17;100495.44;;;8.44;79.59
33506;BME280;19843;51.040;13.782;2022-12-05T11:15:03;100493.00;;;8.40;78.83
33506;BME280;19843;51.040;13.782;2022-12-05T11:17:33;100499.72;;;8.31;79.77
33506;BME280;19843;51.040;13.782;2022-12-05T11:20:29;100496.28;;;8.45;79.14
33506;BME280;19843;51.040;13.782;2022-12-05T11:22:54;100497.44;;;8.41;79.16
33506;BME280;19843;51.040;13.782;2022-12-05T11:25:29;100493.38;;;8.33;79.55
33506;BME280;19843;51.040;13.782;2022-12-05T11:27:58;100493.19;;;8.36;79.53
33506;BME280;19843;51.040;13.782;2022-12-05T11:30:28;100485.44;;;8.32;79.27
33506;BME280;19843;51.040;13.782;2022-12-05T11:33:10;100481.78;;;8.33;79.40
33506;BME280;19843;51.040;13.782;2022-12-05T11:35:38;100497.16;;;8.29;79.25
33506;BME280;19843;51.040;13.782;2022-12-05T11:38:10;100486.53;;;8.28;79.29
33506;BME280;19843;51.040;13.782;2022-12-05T11:40:43;100486.22;;;8.34;79.19
33506;BME280;19843;51.040;13.782;2022-12-05T11:43:42;100491.53;;;8.34;79.26
33506;BME280;19843;51.040;13.782;2022-12-05T11:46:20;100490.00;;;8.30;79.85
33506;BME280;19843;51.040;13.782;2022-12-05T11:49:15;100494.22;;;8.34;79.50
33506;BME280;19843;51.040;13.782;2022-12-05T11:51:52;100487.66;;;8.40;79.40
33506;BME280;19843;51.040;13.782;2022-12-05T11:54:37;100491.28;;;8.39;79.57
33506;BME280;19843;51.040;13.782;2022-12-05T12:00:49;100478.72;;;8.56;78.13
33506;BME280;19843;51.040;13.782;2022-12-05T12:06:28;100491.06;;;8.43;78.68
33506;BME280;19843;51.040;13.782;2022-12-05T12:09:12;100483.28;;;8.54;80.82
33506;BME280;19843;51.040;13.782;2022-12-05T12:11:52;100476.97;;;8.55;81.45
33506;BME280;19843;51.040;13.782;2022-12-05T12:14:25;100476.91;;;8.41;82.05
33506;BME280;19843;51.040;13.782;2022-12-05T12:17:02;100484.13;;;8.39;82.72
33506;BME280;19843;51.040;13.782;2022-12-05T12:19:45;100479.91;;;8.35;83.08
33506;BME280;19843;51.040;13.782;2022-12-05T12:22:31;100478.53;;;8.28;84.09
33506;BME280;19843;51.040;13.782;2022-12-05T12:25:14;100483.44;;;8.20;83.67
33506;BME280;19843;51.040;13.782;2022-12-05T12:27:55;100465.50;;;7.90;86.63
33506;BME280;19843;51.040;13.782;2022-12-05T12:30:40;100470.25;;;8.01;85.10
33506;BME280;19843;51.040;13.782;2022-12-05T12:33:14;100462.75;;;8.07;84.26
33506;BME280;19843;51.040;13.782;2022-12-05T12:35:55;100463.63;;;8.24;81.47
33506;BME280;19843;51.040;13.782;2022-12-05T12:38:45;100464.72;;;8.20;80.35
33506;BME280;19843;51.040;13.782;2022-12-05T12:41:30;100462.84;;;8.22;80.75
33506;BME280;19843;51.040;13.782;2022-12-05T12:44:17;100456.97;;;8.31;79.25
33506;BME280;19843;51.040;13.782;2022-12-05T12:46:52;100452.78;;;8.27;79.34
33506;BME280;19843;51.040;13.782;2022-12-05T12:49:34;100452.78;;;8.27;79.24
33506;BME280;19843;51.040;13.782;2022-12-05T12:52:11;100455.72;;;8.22;79.42
33506;BME280;19843;51.040;13.782;2022-12-05T12:55:04;100448.28;;;8.27;79.08
33506;BME280;19843;51.040;13.782;2022-12-05T12:57:53;100453.44;;;8.30;78.73
33506;BME280;19843;51.040;13.782;2022-12-05T13:00:35;100461.53;;;8.29;78.40
33506;BME280;19843;51.040;13.782;2022-12-05T13:03:10;100455.00;;;8.34;78.31
33506;BME280;19843;51.040;13.782;2022-12-05T13:05:43;100457.94;;;8.30;78.62
33506;BME280;19843;51.040;13.782;2022-12-05T13:08:18;100465.16;;;8.28;78.33
33506;BME280;19843;51.040;13.782;2022-12-05T13:10:48;100457.22;;;8.26;78.92
33506;BME280;19843;51.040;13.782;2022-12-05T13:13:18;100459.75;;;8.29;78.79
33506;BME280;19843;51.040;13.782;2022-12-05T13:15:50;100463.28;;;8.30;78.34
33506;BME280;19843;51.040;13.782;2022-12-05T13:18:19;100457.59;;;8.52;77.04
33506;BME280;19843;51.040;13.782;2022-12-05T13:20:50;100464.66;;;8.37;77.81
33506;BME280;19843;51.040;13.782;2022-12-05T13:23:21;100459.31;;;8.37;77.79